createdAt,value
2019-03-03T00:01:10.018Z,30.40
2019-03-03T00:03:39.273Z,27.47
2019-03-03T00:06:08.500Z,29.37
2019-03-03T00:08:38.020Z,27.73
2019-03-03T00:11:07.283Z,27.10
2019-03-03T00:13:36.556Z,27.87
2019-03-03T00:16:06.053Z,26.77
2019-03-03T00:18:35.332Z,27.80
2019-03-03T00:21:04.566Z,27.87
2019-03-03T00:23:33.879Z,28.23
2019-03-03T00:26:03.593Z,28.47
2019-03-03T00:28:32.837Z,28.47
2019-03-03T00:31:02.090Z,29.00
2019-03-03T00:33:31.340Z,29.10
2019-03-03T00:36:00.560Z,28.80
2019-03-03T00:38:39.118Z,28.13
2019-03-03T00:41:22.856Z,28.87
2019-03-03T00:44:08.037Z,28.70
2019-03-03T00:46:52.481Z,29.20
2019-03-03T00:49:34.038Z,28.23
2019-03-03T00:52:30.840Z,29.67
2019-03-03T00:55:10.068Z,29.27
2019-03-03T00:58:02.457Z,31.23
2019-03-03T01:00:54.755Z,29.67
2019-03-03T01:03:48.924Z,29.83
2019-03-03T01:06:46.083Z,28.83
2019-03-03T01:09:51.570Z,28.43
2019-03-03T01:12:38.522Z,27.93
2019-03-03T01:15:16.221Z,28.57
2019-03-03T01:18:16.448Z,28.43
2019-03-03T01:21:10.574Z,28.77
2019-03-03T01:23:47.785Z,28.07
2019-03-03T01:26:17.034Z,27.70
2019-03-03T01:28:46.285Z,28.10
2019-03-03T01:31:15.538Z,28.67
2019-03-03T01:33:44.769Z,29.40
2019-03-03T01:36:14.156Z,27.90
2019-03-03T01:38:43.390Z,27.37
2019-03-03T01:41:12.650Z,27.57
2019-03-03T01:43:41.872Z,28.37
2019-03-03T01:46:11.158Z,28.90
2019-03-03T01:48:40.494Z,28.33
2019-03-03T01:51:09.805Z,28.33
2019-03-03T01:53:39.023Z,28.20
2019-03-03T01:56:08.282Z,29.23
2019-03-03T01:58:37.521Z,28.47
2019-03-03T02:01:06.818Z,27.33
2019-03-03T02:03:36.469Z,27.03
2019-03-03T02:06:06.914Z,27.80
2019-03-03T02:08:36.142Z,27.87
2019-03-03T02:11:05.625Z,29.07
2019-03-03T02:13:36.962Z,30.23
2019-03-03T02:16:09.573Z,29.40
2019-03-03T02:18:38.798Z,29.87
2019-03-03T02:21:08.101Z,30.87
2019-03-03T02:23:37.346Z,31.37
2019-03-03T02:26:06.585Z,31.10
2019-03-03T02:28:35.879Z,30.13
2019-03-03T02:31:05.174Z,30.13
2019-03-03T02:33:34.416Z,31.10
2019-03-03T02:36:03.654Z,31.40
2019-03-03T02:38:32.973Z,30.27
2019-03-03T02:41:02.235Z,30.73
2019-03-03T02:43:38.927Z,30.00
2019-03-03T02:46:08.158Z,30.63
2019-03-03T02:48:37.407Z,31.33
2019-03-03T02:51:06.694Z,31.77
2019-03-03T02:53:35.914Z,30.00
2019-03-03T02:56:05.177Z,29.57
2019-03-03T02:58:34.404Z,30.20
2019-03-03T03:01:21.241Z,30.37
2019-03-03T03:03:50.491Z,29.80
2019-03-03T03:06:27.627Z,29.13
2019-03-03T03:09:14.687Z,30.37
2019-03-03T03:12:11.934Z,31.07
2019-03-03T03:14:52.818Z,28.03
2019-03-03T03:17:43.942Z,27.43
2019-03-03T03:20:26.436Z,27.83
2019-03-03T03:23:04.418Z,27.43
2019-03-03T03:26:04.653Z,27.13
2019-03-03T03:28:41.692Z,27.70
2019-03-03T03:31:24.916Z,25.80
2019-03-03T03:34:25.321Z,25.20
2019-03-03T03:37:04.902Z,23.90
2019-03-03T03:39:40.189Z,20.83
2019-03-03T03:42:37.736Z,20.67
2019-03-03T03:45:21.786Z,20.03
2019-03-03T03:48:12.845Z,18.57
2019-03-03T03:51:08.912Z,18.50
2019-03-03T03:53:57.120Z,19.00
2019-03-03T03:56:51.654Z,17.00
2019-03-03T03:59:32.352Z,17.40
2019-03-03T04:02:19.945Z,18.60
2019-03-03T04:05:06.872Z,18.50
2019-03-03T04:07:42.568Z,17.57
2019-03-03T04:10:20.405Z,17.47
2019-03-03T04:13:17.213Z,18.53
2019-03-03T04:16:03.945Z,16.47
2019-03-03T04:18:52.168Z,15.77
2019-03-03T04:21:38.935Z,14.57
2019-03-03T04:24:42.399Z,14.30
2019-03-03T04:27:33.435Z,14.33
2019-03-03T04:30:30.498Z,15.47
2019-03-03T04:33:06.975Z,14.83
2019-03-03T04:35:55.328Z,13.83
2019-03-03T04:38:44.455Z,15.10
2019-03-03T04:41:24.824Z,14.30
2019-03-03T04:44:18.920Z,15.40
2019-03-03T04:47:16.133Z,15.70
2019-03-03T04:50:14.659Z,18.77
2019-03-03T04:52:55.949Z,17.00
2019-03-03T04:55:59.245Z,17.97
2019-03-03T04:58:46.020Z,17.03
2019-03-03T05:01:32.734Z,18.50
2019-03-03T05:04:11.508Z,19.07
2019-03-03T05:07:02.261Z,18.33
2019-03-03T05:09:49.226Z,19.00
2019-03-03T05:12:47.356Z,19.60
2019-03-03T05:15:51.795Z,17.53
2019-03-03T05:18:37.657Z,18.13
2019-03-03T05:21:06.884Z,16.87
2019-03-03T05:23:36.133Z,16.97
2019-03-03T05:26:07.365Z,16.43
2019-03-03T05:28:36.654Z,17.13
2019-03-03T05:31:05.903Z,18.57
2019-03-03T05:33:35.187Z,19.63
2019-03-03T05:36:04.446Z,17.87
2019-03-03T05:38:33.747Z,18.53
2019-03-03T05:41:03.019Z,17.30
2019-03-03T05:43:32.257Z,16.73
2019-03-03T05:46:01.504Z,16.07
2019-03-03T05:48:30.721Z,15.60
2019-03-03T05:51:00.097Z,15.57
2019-03-03T05:53:29.339Z,14.57
2019-03-03T05:55:58.631Z,14.40
2019-03-03T05:58:27.889Z,13.73
2019-03-03T06:00:57.142Z,13.40
2019-03-03T06:03:26.432Z,13.90
2019-03-03T06:05:56.246Z,15.00
2019-03-03T06:08:25.492Z,14.33
2019-03-03T06:10:54.785Z,13.73
2019-03-03T06:13:24.748Z,12.90
2019-03-03T06:15:53.992Z,12.90
2019-03-03T06:18:23.539Z,12.43
2019-03-03T06:20:52.791Z,11.70
2019-03-03T06:23:22.046Z,11.87
2019-03-03T06:25:51.398Z,11.73
2019-03-03T06:28:20.667Z,10.13
2019-03-03T06:30:50.061Z,8.90
2019-03-03T06:33:19.296Z,9.20
2019-03-03T06:35:48.539Z,8.17
2019-03-03T06:38:17.788Z,7.97
2019-03-03T06:40:47.053Z,8.17
2019-03-03T06:43:16.265Z,7.83
2019-03-03T06:45:45.596Z,8.07
2019-03-03T06:48:14.840Z,7.77
2019-03-03T06:50:44.087Z,7.87
2019-03-03T06:53:13.588Z,7.40
2019-03-03T06:55:42.858Z,7.33
2019-03-03T06:58:12.160Z,8.20
2019-03-03T07:00:41.623Z,8.30
2019-03-03T07:03:10.902Z,8.17
2019-03-03T07:05:40.144Z,8.10
2019-03-03T07:08:09.403Z,8.30
2019-03-03T07:10:38.703Z,8.13
2019-03-03T07:13:08.292Z,8.47
2019-03-03T07:15:37.536Z,7.83
2019-03-03T07:18:06.760Z,7.87
2019-03-03T07:20:36.042Z,7.47
2019-03-03T07:23:05.280Z,6.80
2019-03-03T07:25:34.546Z,8.07
2019-03-03T07:28:04.091Z,8.27
2019-03-03T07:30:33.363Z,10.03
2019-03-03T07:33:13.783Z,13.60
2019-03-03T07:35:43.220Z,11.53
2019-03-03T07:38:12.469Z,9.07
2019-03-03T07:40:42.145Z,8.30
2019-03-03T07:43:11.388Z,7.70
2019-03-03T07:45:40.623Z,8.13
2019-03-03T07:48:09.884Z,7.67
2019-03-03T07:50:39.111Z,7.73
2019-03-03T07:53:08.429Z,7.40
2019-03-03T07:55:37.660Z,7.90
2019-03-03T07:58:06.906Z,8.90
2019-03-03T08:00:36.896Z,7.33
2019-03-03T08:03:06.153Z,26.50
2019-03-03T08:05:35.401Z,79.80
2019-03-03T08:08:04.660Z,53.47
2019-03-03T08:10:33.940Z,31.27
2019-03-03T08:13:09.160Z,12.80
2019-03-03T08:15:36.450Z,7.57
2019-03-03T08:18:05.791Z,6.27
2019-03-03T08:20:35.051Z,8.93
2019-03-03T08:23:04.830Z,5.43
2019-03-03T08:25:34.077Z,6.20
2019-03-03T08:28:03.351Z,5.00
2019-03-03T08:30:32.586Z,4.00
2019-03-03T08:33:01.842Z,4.03
2019-03-03T08:35:31.087Z,4.13
2019-03-03T08:38:00.330Z,4.20
2019-03-03T08:40:29.559Z,4.07
2019-03-03T08:43:12.583Z,4.10
2019-03-03T08:45:51.270Z,4.17
2019-03-03T08:48:27.399Z,3.90
2019-03-03T08:51:21.491Z,3.77
2019-03-03T08:54:15.647Z,3.60
2019-03-03T08:57:03.870Z,3.60
2019-03-03T08:59:55.746Z,4.00
2019-03-03T09:02:42.787Z,3.60
2019-03-03T09:05:31.159Z,3.90
2019-03-03T09:08:18.083Z,3.60
2019-03-03T09:11:04.942Z,3.57
2019-03-03T09:13:49.391Z,3.57
2019-03-03T09:16:30.453Z,3.80
2019-03-03T09:19:24.573Z,3.30
2019-03-03T09:22:18.564Z,3.13
2019-03-03T09:25:07.691Z,2.70
2019-03-03T09:27:57.246Z,2.80
2019-03-03T09:30:51.324Z,2.40
2019-03-03T09:33:39.514Z,2.50
2019-03-03T09:36:26.273Z,2.40
2019-03-03T09:39:20.002Z,2.77
2019-03-03T09:41:59.167Z,2.60
2019-03-03T09:45:02.497Z,2.60
2019-03-03T09:47:53.270Z,2.47
2019-03-03T09:50:44.360Z,2.52
2019-03-03T09:53:25.071Z,2.30
2019-03-03T09:56:04.688Z,2.40
2019-03-03T09:59:04.999Z,2.30
2019-03-03T10:01:55.611Z,2.47
2019-03-03T10:04:36.104Z,2.50
2019-03-03T10:07:29.754Z,2.50
2019-03-03T10:10:30.032Z,2.10
2019-03-03T10:13:06.130Z,2.20
2019-03-03T10:15:46.077Z,2.40
2019-03-03T10:18:34.561Z,2.30
2019-03-03T10:21:18.473Z,2.70
2019-03-03T10:23:59.791Z,2.60
2019-03-03T10:27:00.047Z,2.60
2019-03-03T10:29:46.918Z,2.23
2019-03-03T10:32:31.530Z,2.47
2019-03-03T10:35:19.856Z,2.70
2019-03-03T10:38:16.968Z,2.10
2019-03-03T10:40:53.953Z,2.40
2019-03-03T10:43:32.911Z,2.40
2019-03-03T10:46:33.091Z,2.30
2019-03-03T10:49:27.507Z,2.20
2019-03-03T10:52:17.429Z,2.60
2019-03-03T10:54:54.529Z,2.30
2019-03-03T10:57:38.690Z,2.43
2019-03-03T11:00:44.108Z,2.23
2019-03-03T11:03:23.352Z,2.20
2019-03-03T11:06:20.612Z,2.20
2019-03-03T11:09:08.808Z,2.47
2019-03-03T11:11:59.740Z,2.40
2019-03-03T11:14:38.974Z,2.93
2019-03-03T11:17:25.656Z,2.53
2019-03-03T11:20:13.859Z,2.43
2019-03-03T11:23:02.229Z,2.70
2019-03-03T11:25:53.562Z,2.40
2019-03-03T11:28:40.463Z,2.30
2019-03-03T11:31:25.217Z,2.83
2019-03-03T11:34:16.427Z,2.50
2019-03-03T11:36:53.712Z,2.50
2019-03-03T11:39:40.590Z,2.40
2019-03-03T11:42:22.584Z,2.60
2019-03-03T11:45:26.333Z,2.53
2019-03-03T11:48:04.597Z,2.47
2019-03-03T11:50:46.229Z,2.77
2019-03-03T11:53:52.603Z,2.47
2019-03-03T11:56:29.269Z,2.80
2019-03-03T11:59:32.532Z,3.13
2019-03-03T12:02:20.739Z,3.10
2019-03-03T12:05:09.792Z,3.27
2019-03-03T12:08:05.490Z,3.60
2019-03-03T12:11:02.757Z,3.40
2019-03-03T12:13:41.133Z,3.20
2019-03-03T12:16:44.387Z,3.50
2019-03-03T12:19:44.399Z,3.20
2019-03-03T12:22:31.319Z,3.00
2019-03-03T12:25:15.192Z,2.90
2019-03-03T12:28:02.403Z,2.80
2019-03-03T12:30:48.752Z,2.70
2019-03-03T12:33:35.776Z,3.33
2019-03-03T12:36:19.879Z,2.83
2019-03-03T12:39:07.433Z,2.70
2019-03-03T12:42:03.643Z,2.80
2019-03-03T12:44:47.536Z,3.37
2019-03-03T12:47:41.840Z,3.07
2019-03-03T12:50:30.045Z,3.07
2019-03-03T12:53:18.232Z,3.20
2019-03-03T12:55:58.597Z,3.10
2019-03-03T12:58:46.793Z,3.27
2019-03-03T13:01:38.411Z,3.40
2019-03-03T13:04:44.668Z,3.40
2019-03-03T13:07:35.299Z,3.43
2019-03-03T13:10:17.137Z,4.10
2019-03-03T13:13:04.075Z,4.07
2019-03-03T13:16:04.566Z,4.40
2019-03-03T13:19:01.730Z,3.87
2019-03-03T13:21:51.536Z,4.00
2019-03-03T13:24:30.161Z,3.50
2019-03-03T13:27:24.161Z,3.50
2019-03-03T13:30:05.435Z,3.50
2019-03-03T13:33:09.311Z,3.30
2019-03-03T13:36:03.412Z,3.07
2019-03-03T13:38:51.645Z,2.97
2019-03-03T13:41:38.329Z,2.87
2019-03-03T13:44:07.605Z,2.90
2019-03-03T13:46:36.851Z,2.60
2019-03-03T13:49:06.135Z,2.50
2019-03-03T13:51:35.379Z,2.73
2019-03-03T13:54:06.480Z,2.60
2019-03-03T13:56:35.894Z,2.83
2019-03-03T13:59:05.470Z,2.60
2019-03-03T14:01:34.708Z,2.80
2019-03-03T14:04:03.997Z,2.80
2019-03-03T14:06:33.337Z,2.77
2019-03-03T14:09:02.634Z,2.80
2019-03-03T14:11:32.137Z,2.43
2019-03-03T14:14:01.658Z,2.70
2019-03-03T14:16:31.114Z,2.93
2019-03-03T14:19:00.393Z,2.70
2019-03-03T14:21:29.639Z,2.90
2019-03-03T14:23:58.918Z,3.13
2019-03-03T14:26:28.188Z,2.87
2019-03-03T14:28:57.446Z,2.27
2019-03-03T14:31:26.994Z,2.30
2019-03-03T14:33:56.264Z,2.17
2019-03-03T14:36:25.517Z,2.33
2019-03-03T14:38:54.929Z,2.10
2019-03-03T14:41:24.136Z,2.20
2019-03-03T14:43:53.368Z,2.70
2019-03-03T14:46:23.129Z,2.40
2019-03-03T14:48:52.439Z,2.27
2019-03-03T14:51:21.974Z,2.20
2019-03-03T14:53:51.241Z,2.17
2019-03-03T14:56:20.634Z,2.53
2019-03-03T14:58:49.961Z,2.20
2019-03-03T15:01:19.221Z,2.30
2019-03-03T15:03:48.455Z,2.10
2019-03-03T15:06:24.406Z,2.43
2019-03-03T15:08:48.700Z,2.30
2019-03-03T15:11:18.018Z,2.23
2019-03-03T15:13:47.262Z,2.13
2019-03-03T15:16:19.013Z,2.10
2019-03-03T15:18:49.120Z,2.30
2019-03-03T15:21:25.044Z,1.93
2019-03-03T15:23:49.411Z,2.10
2019-03-03T15:26:19.223Z,1.97
2019-03-03T15:28:48.482Z,2.00
2019-03-03T15:31:17.772Z,2.00
2019-03-03T15:33:47.014Z,2.00
2019-03-03T15:36:16.291Z,1.90
2019-03-03T15:38:45.574Z,1.90
2019-03-03T15:41:14.841Z,2.23
2019-03-03T15:43:44.111Z,2.00
2019-03-03T15:46:13.405Z,2.30
2019-03-03T15:48:42.641Z,2.97
2019-03-03T15:51:11.997Z,3.13
2019-03-03T15:53:41.225Z,2.77
2019-03-03T15:56:10.476Z,2.80
2019-03-03T15:58:39.705Z,2.57
2019-03-03T16:01:14.702Z,2.10
2019-03-03T16:03:43.956Z,2.87
2019-03-03T16:06:13.201Z,3.17
2019-03-03T16:08:42.428Z,4.50
2019-03-03T16:11:12.009Z,7.30
2019-03-03T16:13:41.246Z,3.47
2019-03-03T16:16:11.502Z,2.73
2019-03-03T16:18:40.748Z,2.40
2019-03-03T16:21:10.040Z,2.23
2019-03-03T16:23:39.256Z,2.70
2019-03-03T16:26:08.521Z,2.50
2019-03-03T16:28:37.796Z,2.57
2019-03-03T16:31:07.111Z,2.73
2019-03-03T16:33:36.390Z,2.80
2019-03-03T16:36:06.048Z,2.77
2019-03-03T16:38:35.302Z,2.50
2019-03-03T16:41:04.555Z,2.70
2019-03-03T16:43:33.789Z,2.30
2019-03-03T16:46:03.046Z,2.20
2019-03-03T16:48:32.311Z,2.20
2019-03-03T16:51:01.542Z,3.00
2019-03-03T16:53:30.964Z,3.17
2019-03-03T16:56:00.324Z,2.23
2019-03-03T16:58:29.960Z,2.20
2019-03-03T17:00:59.187Z,2.30
2019-03-03T17:03:28.633Z,2.20
2019-03-03T17:05:57.990Z,2.70
2019-03-03T17:08:27.518Z,2.83
2019-03-03T17:10:57.217Z,2.97
2019-03-03T17:13:26.824Z,2.50
2019-03-03T17:15:56.056Z,2.53
2019-03-03T17:18:25.301Z,2.50
2019-03-03T17:20:54.548Z,2.97
2019-03-03T17:23:23.881Z,3.17
2019-03-03T17:25:53.177Z,3.37
2019-03-03T17:28:22.501Z,4.87
2019-03-03T17:30:51.722Z,4.90
2019-03-03T17:33:21.679Z,5.00
2019-03-03T17:35:50.921Z,7.10
2019-03-03T17:38:20.192Z,4.93
2019-03-03T17:40:49.464Z,4.30
2019-03-03T17:43:18.713Z,3.60
2019-03-03T17:45:47.992Z,4.90
2019-03-03T17:48:17.324Z,7.43
2019-03-03T17:50:46.512Z,4.73
2019-03-03T17:53:15.755Z,4.03
2019-03-03T17:55:45.330Z,4.27
2019-03-03T17:58:14.684Z,4.67
2019-03-03T18:00:45.223Z,5.27
2019-03-03T18:03:14.453Z,5.10
2019-03-03T18:05:43.732Z,5.47
2019-03-03T18:08:12.961Z,5.87
2019-03-03T18:10:42.232Z,6.20
2019-03-03T18:13:11.454Z,7.00
2019-03-03T18:15:40.755Z,8.00
2019-03-03T18:18:09.980Z,7.70
2019-03-03T18:20:39.335Z,7.70
2019-03-03T18:23:08.601Z,10.53
2019-03-03T18:25:37.856Z,15.20
2019-03-03T18:28:07.089Z,16.17
2019-03-03T18:30:36.366Z,11.03
2019-03-03T18:33:05.597Z,7.43
2019-03-03T18:35:34.835Z,7.47
2019-03-03T18:38:04.348Z,7.57
2019-03-03T18:40:33.586Z,6.87
2019-03-03T18:43:03.020Z,6.37
2019-03-03T18:45:32.337Z,6.57
2019-03-03T18:48:01.556Z,7.23
2019-03-03T18:50:30.797Z,7.90
2019-03-03T18:53:00.286Z,7.37
2019-03-03T18:55:29.754Z,6.67
2019-03-03T18:57:58.976Z,6.87
2019-03-03T19:00:28.753Z,6.70
2019-03-03T19:02:58.495Z,15.00
2019-03-03T19:05:28.077Z,13.27
2019-03-03T19:07:57.298Z,8.37
2019-03-03T19:10:26.822Z,7.30
2019-03-03T19:12:56.278Z,6.10
2019-03-03T19:15:25.728Z,5.83
2019-03-03T19:17:54.970Z,5.50
2019-03-03T19:20:24.205Z,6.80
2019-03-03T19:22:53.434Z,7.20
2019-03-03T19:25:22.703Z,5.93
2019-03-03T19:27:51.939Z,5.60
2019-03-03T19:30:22.831Z,4.87
2019-03-03T19:33:05.047Z,4.90
2019-03-03T19:35:34.282Z,5.40
2019-03-03T19:38:03.508Z,5.20
2019-03-03T19:40:32.868Z,5.90
2019-03-03T19:43:02.097Z,5.60
2019-03-03T19:45:32.988Z,5.83
2019-03-03T19:48:02.227Z,6.43
2019-03-03T19:50:31.904Z,6.57
2019-03-03T19:53:01.421Z,6.97
2019-03-03T19:55:30.680Z,7.17
2019-03-03T19:57:59.900Z,9.23
2019-03-03T20:00:35.327Z,9.40
2019-03-03T20:03:02.486Z,7.80
2019-03-03T20:05:31.777Z,7.57
2019-03-03T20:08:01.000Z,7.20
2019-03-03T20:10:30.304Z,7.30
2019-03-03T20:12:59.526Z,7.37
2019-03-03T20:15:28.788Z,7.27
2019-03-03T20:17:58.037Z,7.10
2019-03-03T20:20:27.259Z,7.90
2019-03-03T20:22:56.507Z,8.30
2019-03-03T20:25:26.424Z,8.77
2019-03-03T20:27:55.663Z,9.80
2019-03-03T20:30:25.268Z,7.97
2019-03-03T20:32:54.533Z,7.80
2019-03-03T20:35:24.591Z,7.17
2019-03-03T20:37:53.836Z,6.93
2019-03-03T20:40:23.129Z,7.00
2019-03-03T20:42:52.427Z,7.23
2019-03-03T20:45:22.929Z,7.03
2019-03-03T20:47:52.184Z,7.43
2019-03-03T20:50:21.970Z,7.27
2019-03-03T20:52:51.326Z,7.13
2019-03-03T20:55:20.896Z,6.90
2019-03-03T20:57:50.153Z,7.17
2019-03-03T21:00:21.199Z,7.30
2019-03-03T21:02:50.493Z,7.17
2019-03-03T21:05:19.811Z,7.17
2019-03-03T21:07:51.704Z,7.80
2019-03-03T21:10:21.399Z,7.60
2019-03-03T21:12:50.676Z,7.77
2019-03-03T21:15:19.883Z,8.10
2019-03-03T21:17:49.123Z,7.40
2019-03-03T21:20:18.969Z,7.77
2019-03-03T21:22:48.256Z,8.13
2019-03-03T21:25:17.687Z,7.47
2019-03-03T21:27:48.954Z,8.43
2019-03-03T21:30:19.944Z,8.43
2019-03-03T21:32:49.418Z,7.97
2019-03-03T21:35:18.734Z,7.83
2019-03-03T21:37:48.042Z,8.03
2019-03-03T21:40:18.460Z,8.17
2019-03-03T21:42:47.747Z,7.83
2019-03-03T21:45:18.240Z,7.73
2019-03-03T21:47:47.495Z,7.40
2019-03-03T21:50:18.401Z,7.53
2019-03-03T21:52:47.636Z,7.63
2019-03-03T21:55:16.889Z,7.73
2019-03-03T21:57:47.549Z,7.67
2019-03-03T22:00:28.535Z,7.60
2019-03-03T22:02:58.032Z,7.60
2019-03-03T22:05:27.581Z,8.13
2019-03-03T22:07:56.871Z,8.20
2019-03-03T22:10:35.044Z,8.73
2019-03-03T22:13:06.415Z,9.07
2019-03-03T22:15:35.927Z,9.03
2019-03-03T22:18:05.508Z,8.63
2019-03-03T22:20:34.783Z,8.43
2019-03-03T22:23:04.459Z,8.40
2019-03-03T22:25:33.682Z,8.47
2019-03-03T22:28:02.943Z,8.17
2019-03-03T22:30:32.189Z,8.23
2019-03-03T22:33:01.423Z,8.27
2019-03-03T22:35:30.647Z,7.93
2019-03-03T22:37:59.895Z,7.87
2019-03-03T22:40:31.350Z,7.60
2019-03-03T22:43:00.590Z,7.90
2019-03-03T22:45:29.823Z,7.97
2019-03-03T22:47:59.127Z,6.83
2019-03-03T22:50:28.342Z,6.30
2019-03-03T22:52:57.618Z,6.27
2019-03-03T22:55:26.847Z,6.27
2019-03-03T22:57:56.090Z,5.97
2019-03-03T23:00:45.110Z,6.50
2019-03-03T23:03:17.355Z,6.53
2019-03-03T23:05:55.586Z,6.67
2019-03-03T23:08:30.442Z,6.17
2019-03-03T23:11:37.021Z,6.70
2019-03-03T23:14:28.972Z,6.20
2019-03-03T23:17:39.472Z,6.40
2019-03-03T23:20:20.101Z,6.33
2019-03-03T23:23:20.935Z,6.50
2019-03-03T23:25:51.644Z,6.70
2019-03-03T23:28:22.182Z,7.23
2019-03-03T23:30:52.300Z,6.63
2019-03-03T23:33:21.526Z,7.00
2019-03-03T23:35:51.320Z,6.60
2019-03-03T23:38:20.629Z,7.20
2019-03-03T23:40:49.886Z,6.87
2019-03-03T23:43:19.307Z,6.70
2019-03-03T23:45:48.847Z,6.90
2019-03-03T23:48:18.095Z,7.13
2019-03-03T23:50:47.672Z,6.60
2019-03-03T23:53:16.901Z,6.77
2019-03-03T23:55:46.147Z,6.83
2019-03-03T23:58:17.385Z,6.17
